Flight Track Log - Related Links

Times and Time Zones

All times are in EDT time to prevent confusion due to time zone crossing. See the FLG3766 flight status page for this flight to view local times or setup timezone preferences in your user account.

Time Position Orientation Groundspeed Altitude Reporting Facility
EDT Latitude Longitude Course Direction KTS MPH feet Rate Location/Type
Tue 05:23:04 PM 37.4833 -77.3333 230° Southwest 152 175 1,300  Level Potomac TRACON
Tue 05:24:04 PM 37.4500 -77.3833 248° West 200 230 3,300 1,842 Climbing Potomac TRACON
Tue 05:24:45 PM 37.4375 -77.4228 260° West 197 227 4,400 1,706 Climbing Washington Center
Tue 05:25:46 PM 37.4258 -77.5089 260° West 216 249 6,200 2,213 Climbing Washington Center
Tue 05:26:47 PM 37.4142 -77.5947 259° West 236 272 8,900 2,186 Climbing Washington Center
Tue 05:27:44 PM 37.4000 -77.6858 260° West 258 297 10,500 1,333 Climbing Washington Center
Tue 05:28:44 PM 37.3856 -77.7900 259° West 286 329 11,500 1,091 Climbing Washington Center
Tue 05:29:45 PM 37.3689 -77.9019 260° West 316 364 12,700 1,426 Climbing Washington Center
Tue 05:30:46 PM 37.3519 -78.0189 254° West 337 388 14,400 1,714 Climbing Washington Center
Tue 05:31:44 PM 37.3267 -78.1306 256° West 337 388 16,100 1,513 Climbing Washington Center
Tue 05:32:45 PM 37.3033 -78.2444 277° West 337 388 17,400 1,230 Climbing Washington Center
Tue 05:33:46 PM 37.3153 -78.3650 314° West 323 372 18,600 992 Climbing Washington Center
Tue 05:34:46 PM 37.3842 -78.4539 315° West 321 369 19,400 1,017 Climbing Washington Center
Tue 05:35:44 PM 37.4550 -78.5428 317° Northwest 341 392 20,600 1,271 Climbing Washington Center
Tue 05:36:44 PM 37.5258 -78.6269 308° West 347 399 21,900 1,140 Climbing Washington Center
Tue 05:37:45 PM 37.5800 -78.7156 290° West 354 407 22,900 992 Climbing Washington Center
Tue 05:38:45 PM 37.6122 -78.8294 291° West 348 400 23,900 1,339 Climbing Washington Center
Tue 05:39:46 PM 37.6447 -78.9383 289° West 342 394 25,600 1,488 Climbing Washington Center
Tue 05:40:46 PM 37.6769 -79.0553 290° West 331 381 26,900 1,119 Climbing Washington Center
Tue 05:41:44 PM 37.7072 -79.1617 291° West 331 381 27,800 700 Climbing Washington Center
Tue 05:42:46 PM 37.7394 -79.2683 288° West 331 381 28,300 541 Climbing Washington Center
Tue 05:43:46 PM 37.7653 -79.3719 290° West 336 387 28,900 610 Climbing Washington Center
Tue 05:44:44 PM 37.7972 -79.4839 289° West 341 392 29,500 559 Climbing Washington Center
Tue 05:45:44 PM 37.8289 -79.6014 289° West 347 399 30,000 248 Climbing Washington Center
Tue 05:46:45 PM 37.8658 -79.7375 287° West 357 411 30,000  Level Washington Center
Tue 05:47:47 PM 37.8969 -79.8656 289° West 370 426 30,000  Level Washington Center
Tue 05:48:45 PM 37.9319 -79.9939 288° West 375 432 30,000  Level Washington Center
Tue 05:49:45 PM 37.9628 -80.1142 288° West 394 453 30,000  Level Washington Center
Tue 05:50:46 PM 37.9992 -80.2533 289° West 404 465 30,000  Level Washington Center
Tue 05:52:23 PM 38.0542 -80.4606 289° West 397 457 30,000  Level Indianapolis Center
Tue 05:53:23 PM 38.0933 -80.6039 288° West 397 457 30,000  Level Indianapolis Center
Tue 05:54:23 PM 38.1281 -80.7400 289° West 397 457 30,000  Level Indianapolis Center
Tue 05:55:23 PM 38.1647 -80.8786 289° West 402 463 30,000  Level Indianapolis Center
Tue 05:56:23 PM 38.2011 -81.0172 287° West 407 468 30,000  Level Indianapolis Center
Tue 05:57:23 PM 38.2353 -81.1561 291° West 407 468 30,000  Level Indianapolis Center
Tue 05:58:23 PM 38.2756 -81.2897 340° North 407 468 30,000  Level Indianapolis Center
Tue 06:00:23 PM 38.4986 -81.3944 345° North 414 476 30,000  Level Indianapolis Center
Tue 06:01:23 PM 38.6119 -81.4333 342° North 423 487 30,000  Level Indianapolis Center
Tue 06:02:23 PM 38.7400 -81.4856 344° North 428 493 30,000  Level Indianapolis Center
Tue 06:03:23 PM 38.8619 -81.5300 343° North 433 498 30,000  Level Indianapolis Center
Tue 06:04:23 PM 38.9731 -81.5750 343° North 439 505 30,000  Level Indianapolis Center
Tue 06:05:23 PM 39.0886 -81.6200 343° North 433 498 30,000  Level Indianapolis Center
Tue 06:06:23 PM 39.1997 -81.6625 344° North 427 491 30,000  Level Indianapolis Center
Tue 06:07:23 PM 39.3131 -81.7053 342° North 427 491 30,000  Level Indianapolis Center
Tue 06:08:23 PM 39.4283 -81.7533 344° North 427 491 30,000  Level Indianapolis Center
Tue 06:09:23 PM 39.5439 -81.7961 343° North 427 491 30,000  Level Indianapolis Center
Tue 06:10:23 PM 39.6569 -81.8419 347° North 427 491 30,000  Level Indianapolis Center
Tue 06:11:23 PM 39.7597 -81.8717 352° North 422 486 30,000  Level Indianapolis Center
Tue 06:12:23 PM 39.8831 -81.8931 352° North 427 491 30,000  Level Indianapolis Center
Tue 06:14:00 PM 40.0864 -81.9289 352° North 438 504 30,000  Level Cleveland Center
Tue 06:15:00 PM 40.2069 -81.9506 352° North 433 498 30,000  Level Cleveland Center
Tue 06:16:00 PM 40.3275 -81.9719 350° North 439 505 30,000 -50 Level Cleveland Center
Tue 06:17:00 PM 40.4461 -81.9992 338° Northwest 434 499 29,900 -550 Descending Cleveland Center
Tue 06:18:00 PM 40.5456 -82.0531 335° Northwest 428 493 28,900 -950 Descending Cleveland Center
Tue 06:19:00 PM 40.6592 -82.1214 336° Northwest 433 498 28,000 -650 Descending Cleveland Center
Tue 06:20:00 PM 40.7689 -82.1869 335° Northwest 438 504 27,600 -1,000 Descending Cleveland Center
Tue 06:21:00 PM 40.8783 -82.2556 335° Northwest 438 504 26,000 -1,550 Descending Cleveland Center
Tue 06:22:00 PM 40.9836 -82.3214 335° Northwest 430 495 24,500 -1,000 Descending Cleveland Center
Tue 06:23:00 PM 41.0972 -82.3906 336° Northwest 418 481 24,000 -800 Descending Cleveland Center
Tue 06:24:00 PM 41.1964 -82.4486 334° Northwest 405 466 22,900 -1,350 Descending Cleveland Center
Tue 06:25:00 PM 41.2872 -82.5064 335° Northwest 379 436 21,300 -1,450 Descending Cleveland Center
Tue 06:26:00 PM 41.3717 -82.5586 335° Northwest 351 404 20,000 -650 Descending Cleveland Center
Tue 06:27:00 PM 41.4500 -82.6083 335° Northwest 321 369 20,000 -300 Level Cleveland Center
Tue 06:28:00 PM 41.5347 -82.6608 335° Northwest 321 369 19,400 -950 Descending Cleveland Center
Tue 06:29:00 PM 41.6211 -82.7136 335° Northwest 329 379 18,100 -1,250 Descending Cleveland Center
Tue 06:30:00 PM 41.6975 -82.7606 343° North 324 373 16,900 -1,400 Descending Cleveland Center
Tue 06:31:00 PM 41.7739 -82.7911 58° Northeast 299 344 15,300 -1,600 Descending Cleveland Center
Tue 06:32:00 PM 41.8153 -82.7033 124° Southeast 232 267 13,700 -1,600 Descending Cleveland Center
Tue 06:33:00 PM 41.7689 -82.6128 124° Southeast 213 245 12,100 -850 Descending Cleveland Center
Tue 06:34:00 PM 41.7286 -82.5336 150° Southeast 234 269 12,000 -50 Descending Cleveland Center
Tue 06:35:00 PM 41.6731 -82.4903 202° Southwest 248 285 12,000  Level Cleveland Center
Tue 06:35:37 PM 41.6394 -82.5086 249° West 223 257 12,000 65 Level Cleveland Center
Tue 06:36:32 PM 41.6217 -82.5692 304° West 221 254 12,100 38 Climbing Cleveland Center
Tue 06:38:15 PM 41.6953 -82.7164 307° West 296 341 12,100  Level FAA TRACON SMA TRACON (SMA)
Tue 06:38:55 PM 41.7311 -82.7794 317° Northwest 298 343 12,100  Level FAA TRACON SMA TRACON (SMA)
Tue 06:39:35 PM 41.7736 -82.8328 317° Northwest 305 351 12,100  Level FAA TRACON SMA TRACON (SMA)
Tue 06:40:16 PM 41.8153 -82.8850 318° Northwest 305 351 12,100 -74 Level FAA TRACON SMA TRACON (SMA)
Tue 06:40:56 PM 41.8553 -82.9328 316° Northwest 303 349 12,000 -80 Descending FAA TRACON SMA TRACON (SMA)
Tue 06:41:31 PM 41.8931 -82.9822 319° Northwest 303 349 12,000  Level Cleveland Center
Tue 06:42:32 PM 41.9561 -83.0569 318° Northwest 301 346 12,000 -492 Level Cleveland Center
Tue 06:43:33 PM 42.0253 -83.1408 316° Northwest 324 373 11,000 -492 Descending Cleveland Center
Tue 06:44:34 PM 42.0839 -83.2158 339° North 274 315 11,000 -49 Level Cleveland Center
Tue 06:45:35 PM 42.1431 -83.2458 15° North 253 291 10,900 -713 Descending FAA TRACON SMA TRACON (SMA)
Tue 06:46:15 PM 42.1886 -83.2297 22° Northeast 253 291 9,800 -1,556 Descending FAA TRACON SMA TRACON (SMA)
Tue 06:46:56 PM 42.2364 -83.2036 28° Northeast 260 299 8,800 -1,620 Descending FAA TRACON SMA TRACON (SMA)
Tue 06:47:55 PM 42.2975 -83.1606 31° Northeast 251 289 7,100 -1,455 Descending FAA TRACON SMA TRACON (SMA)
Tue 06:48:35 PM 42.3344 -83.1306 32° Northeast 244 281 6,400 -825 Descending FAA TRACON SMA TRACON (SMA)
Tue 06:49:15 PM 42.3736 -83.0981 25° Northeast 238 274 6,000 -300 Descending FAA TRACON SMA TRACON (SMA)
Tue 06:49:55 PM 42.4122 -83.0736 19° North 227 261 6,000 74 Level FAA TRACON SMA TRACON (SMA)
Tue 06:50:36 PM 42.4494 -83.0558 318° Northwest 224 258 6,100 71 Climbing FAA TRACON SMA TRACON (SMA)
Tue 06:51:19 PM 42.4833 -83.0972 240° Southwest 220 253 6,100 -61 Level FAA TRACON SMA TRACON (SMA)
Tue 06:52:15 PM 42.4569 -83.1594 209° Southwest 234 269 6,000 -625 Descending FAA TRACON SMA TRACON (SMA)
Tue 06:52:55 PM 42.4183 -83.1886 207° Southwest 242 278 5,100 -1,259 Descending FAA TRACON SMA TRACON (SMA)
Tue 06:53:36 PM 42.3786 -83.2161 207° Southwest 236 272 4,300 -1,171 Descending FAA TRACON SMA TRACON (SMA)

Login

Don't have an account? Register now (free) for customized features, flight alerts, and more!